0821 UTC 05 August 2015 found at http://aviationweather.gov/adds/metars/
 
METAR text: KAFF 050758Z AUTO 01009KT 10SM CLR 12/08 A3027 RMK AO2 SLP157 T01150083
Conditions at: KAFF (USAF ACADEMY/COS, CO, US) observed 0758 UTC 05 August 2015
Temperature: 11.5°C (53°F)
Dewpoint: 8.3°C (47°F) [RH = 81%]
Pressure (altimeter): 30.27 inches Hg (1025.1 mb[Sea-level pressure: 1015.7 mb]
Winds: from the N (10 degrees) at 10 MPH (9 knots; 4.7 m/s)
Visibility: 10 or more miles (16+ km)
Ceiling: at least 12,000 feet AGL
Clouds: sky clear below 12,000 feet AGL
Weather: automated observation with no human augmentation;
there may or may not be significant weather present at this time

METAR text: KAFF 050658Z AUTO 36007KT 350V080 10SM CLR 12/09 A3028 RMK AO2 SLP164 T01170089 403100095
Conditions at: KAFF (USAF ACADEMY/COS, CO, US) observed 0658 UTC 05 August 2015
Temperature: 11.7°C (53°F)
Dewpoint: 8.9°C (48°F) [RH = 83%]
Pressure (altimeter): 30.28 inches Hg (1025.5 mb[Sea-level pressure: 1016.4 mb]
Winds: from the N (360 degrees) at 8 MPH (7 knots; 3.6 m/s)
Visibility: 10 or more miles (16+ km)
Ceiling: at least 12,000 feet AGL
Clouds: sky clear below 12,000 feet AGL
Weather: automated observation with no human augmentation;
there may or may not be significant weather present at this time

METAR text: KAFF 050558Z AUTO 35004KT 10SM CLR 13/09 A3028 RMK AO2 SLP164 60000 T01270094 10274 20125 52019
Conditions at: KAFF (USAF ACADEMY/COS, CO, US) observed 0558 UTC 05 August 2015
Temperature: 12.7°C (55°F)
Dewpoint: 9.4°C (49°F) [RH = 80%]
Pressure (altimeter): 30.28 inches Hg (1025.5 mb[Sea-level pressure: 1016.4 mb]
Winds: from the N (350 degrees) at 5 MPH (4 knots; 2.1 m/s)
Visibility: 10 or more miles (16+ km)
Ceiling: at least 12,000 feet AGL
Clouds: sky clear below 12,000 feet AGL
Weather: automated observation with no human augmentation;
there may or may not be significant weather present at this time

METAR text: KAFF 050458Z AUTO 03004KT 10SM CLR 14/10 A3026 RMK AO2 SLP157 T01420099
Conditions at: KAFF (USAF ACADEMY/COS, CO, US) observed 0458 UTC 05 August 2015
Temperature: 14.2°C (58°F)
Dewpoint: 9.9°C (50°F) [RH = 75%]
Pressure (altimeter): 30.26 inches Hg (1024.8 mb[Sea-level pressure: 1015.7 mb]
Winds: from the NNE (30 degrees) at 5 MPH (4 knots; 2.1 m/s)
Visibility: 10 or more miles (16+ km)
Ceiling: at least 12,000 feet AGL
Clouds: sky clear below 12,000 feet AGL
Weather: automated observation with no human augmentation;
there may or may not be significant weather present at this time

METAR text: KAFF 050358Z AUTO 34003KT 10SM CLR 18/11 A3025 RMK AO2 SLP150 T01760109
Conditions at: KAFF (USAF ACADEMY/COS, CO, US) observed 0358 UTC 05 August 2015
Temperature: 17.6°C (64°F)
Dewpoint: 10.9°C (52°F) [RH = 65%]
Pressure (altimeter): 30.25 inches Hg (1024.5 mb[Sea-level pressure: 1015.0 mb]
Winds: from the NNW (340 degrees) at 3 MPH (3 knots; 1.6 m/s)
Visibility: 10 or more miles (16+ km)
Ceiling: at least 12,000 feet AGL
Clouds: sky clear below 12,000 feet AGL
Weather: automated observation with no human augmentation;
there may or may not be significant weather present at this time

METAR text: KAFF 050258Z AUTO 02005KT 10SM CLR 19/10 A3022 RMK AO2 SLP137 60000 T01930100 52018
Conditions at: KAFF (USAF ACADEMY/COS, CO, US) observed 0258 UTC 05 August 2015
Temperature: 19.3°C (67°F)
Dewpoint: 10.0°C (50°F) [RH = 55%]
Pressure (altimeter): 30.22 inches Hg (1023.5 mb[Sea-level pressure: 1013.7 mb]
Winds: from the NNE (20 degrees) at 6 MPH (5 knots; 2.6 m/s)
Visibility: 10 or more miles (16+ km)
Ceiling: at least 12,000 feet AGL
Clouds: sky clear below 12,000 feet AGL
Weather: automated observation with no human augmentation;
there may or may not be significant weather present at this time

METAR text: KAFF 050158Z AUTO 06010KT 10SM FEW110 23/08 A3018 RMK AO2 SLP123 P0000
Conditions at: KAFF (USAF ACADEMY/COS, CO, US) observed 0158 UTC 05 August 2015
Temperature: 23.0°C (73°F)
Dewpoint: 8.0°C (46°F) [RH = 38%]
Pressure (altimeter): 30.18 inches Hg (1022.1 mb[Sea-level pressure: 1012.3 mb]
Winds: from the ENE (60 degrees) at 12 MPH (10 knots; 5.2 m/s)
Visibility: 10 or more miles (16+ km)
Ceiling: at least 12,000 feet AGL
Clouds: few clouds at 11000 feet AGL
Weather: automated observation with no human augmentation;
there may or may not be significant weather present at this time

METAR text: KAFF 050058Z AUTO 30003KT 10SM SCT110 25/08 A3016 RMK AO2 DZB47E57 SLP116 P0000
Conditions at: KAFF (USAF ACADEMY/COS, CO, US) observed 0058 UTC 05 August 2015
Temperature: 25.0°C (77°F)
Dewpoint: 8.0°C (46°F) [RH = 34%]
Pressure (altimeter): 30.16 inches Hg (1021.4 mb[Sea-level pressure: 1011.6 mb]
Winds: from the WNW (300 degrees) at 3 MPH (3 knots; 1.6 m/s)
Visibility: 10 or more miles (16+ km)
Ceiling: at least 12,000 feet AGL
Clouds: scattered clouds at 11000 feet AGL
Weather: automated observation with no human augmentation;
there may or may not be significant weather present at this time

METAR text: KAFF 050057Z AUTO 30004KT 10SM FEW110 25/08 A3016 RMK AO2 DZB47E57
Conditions at: KAFF (USAF ACADEMY/COS, CO, US) observed 0057 UTC 05 August 2015
Temperature: 25.0°C (77°F)
Dewpoint: 8.0°C (46°F) [RH = 34%]
Pressure (altimeter): 30.16 inches Hg (1021.4 mb)
Winds: from the WNW (300 degrees) at 5 MPH (4 knots; 2.1 m/s)
Visibility: 10 or more miles (16+ km)
Ceiling: at least 12,000 feet AGL
Clouds: few clouds at 11000 feet AGL
Weather: automated observation with no human augmentation;
there may or may not be significant weather present at this time

METAR text: KAFF 050048Z AUTO 32003KT 10SM -DZ FEW110 26/07 A3016 RMK AO2 DZB47
Conditions at: KAFF (USAF ACADEMY/COS, CO, US) observed 0048 UTC 05 August 2015
Temperature: 26.0°C (79°F)
Dewpoint: 7.0°C (45°F) [RH = 30%]
Pressure (altimeter): 30.16 inches Hg (1021.4 mb)
Winds: from the NW (320 degrees) at 3 MPH (3 knots; 1.6 m/s)
Visibility: 10 or more miles (16+ km)
Ceiling: at least 12,000 feet AGL
Clouds: few clouds at 11000 feet AGL
Weather: -DZ  (light drizzle)

METAR text: KAFF 042358Z AUTO 04009KT 10SM FEW120 27/04 A3015 RMK AO2 SLP118 60000 T02670044 10310 20266 53007
Conditions at: KAFF (USAF ACADEMY/COS, CO, US) observed 2358 UTC 04 August 2015
Temperature: 26.7°C (80°F)
Dewpoint: 4.4°C (40°F) [RH = 24%]
Pressure (altimeter): 30.15 inches Hg (1021.1 mb[Sea-level pressure: 1011.8 mb]
Winds: from the NE (40 degrees) at 10 MPH (9 knots; 4.7 m/s)
Visibility: 10 or more miles (16+ km)
Ceiling: at least 12,000 feet AGL
Clouds: few clouds at 12000 feet AGL
Weather: automated observation with no human augmentation;
there may or may not be significant weather present at this time

METAR text: KAFF 042258Z AUTO 36011KT 10SM FEW130 29/02 A3013 RMK AO2 SLP111 T02850021
Conditions at: KAFF (USAF ACADEMY/COS, CO, US) observed 2258 UTC 04 August 2015
Temperature: 28.5°C (83°F)
Dewpoint: 2.1°C (36°F) [RH = 18%]
Pressure (altimeter): 30.13 inches Hg (1020.4 mb[Sea-level pressure: 1011.1 mb]
Winds: from the N (360 degrees) at 13 MPH (11 knots; 5.7 m/s)
Visibility: 10 or more miles (16+ km)
Ceiling: at least 12,000 feet AGL
Clouds: few clouds at 13000 feet AGL
Weather: automated observation with no human augmentation;
there may or may not be significant weather present at this time

METAR text: KAFF 042233Z AUTO 32014G20KT 10SM FEW130 31/M01 A3013 RMK AO2 WSHFT 20
Conditions at: KAFF (USAF ACADEMY/COS, CO, US) observed 2233 UTC 04 August 2015
Temperature: 31.0°C (88°F)
Dewpoint: -1.0°C (30°F) [RH = 13%]
Pressure (altimeter): 30.13 inches Hg (1020.4 mb)
Winds: from the NW (320 degrees) at 16 MPH (14 knots; 7.3 m/sgusting to 23 MPH (20 knots; 10.4 m/s)
Visibility: 10 or more miles (16+ km)
Ceiling: at least 12,000 feet AGL
Clouds: few clouds at 13000 feet AGL
Weather: automated observation with no human augmentation;
there may or may not be significant weather present at this time

METAR text: KAFF 042155Z 26011G21KT 10SM CLR 30/M02 A3013 RMK AO2A SLPNO T03011022
Conditions at: KAFF (USAF ACADEMY/COS, CO, US) observed 2155 UTC 04 August 2015
Temperature: 30.1°C (86°F)
Dewpoint: -2.2°C (28°F) [RH = 12%]
Pressure (altimeter): 30.13 inches Hg (1020.4 mb)
Winds: from the W (260 degrees) at 13 MPH (11 knots; 5.7 m/sgusting to 24 MPH (21 knots; 10.9 m/s)
Visibility: 10 or more miles (16+ km)
Ceiling: at least 12,000 feet AGL
Clouds: sky clear below 12,000 feet AGL
Weather: no significant weather observed at this time

METAR text: KAFF 042153Z 25010G22KT 10SM CLR 30/M01 A3012 RMK AO2A WSHFT 49
Conditions at: KAFF (USAF ACADEMY/COS, CO, US) observed 2153 UTC 04 August 2015
Temperature: 30.0°C (86°F)
Dewpoint: -1.0°C (30°F) [RH = 13%]
Pressure (altimeter): 30.12 inches Hg (1020.1 mb)
Winds: from the WSW (250 degrees) at 12 MPH (10 knots; 5.2 m/sgusting to 25 MPH (22 knots; 11.4 m/s)
Visibility: 10 or more miles (16+ km)
Ceiling: at least 12,000 feet AGL
Clouds: sky clear below 12,000 feet AGL
Weather: no significant weather observed at this time

METAR text: KAFF 042152Z 26012G21KT 7SM CLR 30/M01 A3012 RMK AO2A WSHFT 45
Conditions at: KAFF (USAF ACADEMY/COS, CO, US) observed 2152 UTC 04 August 2015
Temperature: 30.0°C (86°F)
Dewpoint: -1.0°C (30°F) [RH = 13%]
Pressure (altimeter): 30.12 inches Hg (1020.1 mb)
Winds: from the W (260 degrees) at 14 MPH (12 knots; 6.2 m/sgusting to 24 MPH (21 knots; 10.9 m/s)
Visibility: 7 miles (11 km)
Ceiling: at least 12,000 feet AGL
Clouds: sky clear below 12,000 feet AGL
Weather: no significant weather observed at this time

METAR text: KAFF 042144Z 30012G22KT 250V310 10SM CLR 30/M01 A3012 RMK AO2A WSHFT 41
Conditions at: KAFF (USAF ACADEMY/COS, CO, US) observed 2144 UTC 04 August 2015
Temperature: 30.0°C (86°F)
Dewpoint: -1.0°C (30°F) [RH = 13%]
Pressure (altimeter): 30.12 inches Hg (1020.1 mb)
Winds: from the WNW (300 degrees) at 14 MPH (12 knots; 6.2 m/sgusting to 25 MPH (22 knots; 11.4 m/s)
Visibility: 10 or more miles (16+ km)
Ceiling: at least 12,000 feet AGL
Clouds: sky clear below 12,000 feet AGL
Weather: no significant weather observed at this time

METAR text: KAFF 042140Z 33018G22KT 10SM CLR 30/M02 A3012 RMK AO2A WSHFT 32
Conditions at: KAFF (USAF ACADEMY/COS, CO, US) observed 2140 UTC 04 August 2015
Temperature: 30.0°C (86°F)
Dewpoint: -2.0°C (28°F) [RH = 12%]
Pressure (altimeter): 30.12 inches Hg (1020.1 mb)
Winds: from the NNW (330 degrees) at 21 MPH (18 knots; 9.4 m/sgusting to 25 MPH (22 knots; 11.4 m/s)
Visibility: 10 or more miles (16+ km)
Ceiling: at least 12,000 feet AGL
Clouds: sky clear below 12,000 feet AGL
Weather: no significant weather observed at this time

METAR text: KAFF 042058Z 34006KT 10SM FEW120 28/01 A3012 RMK AO2A SLP108 T02830007 55007
Conditions at: KAFF (USAF ACADEMY/COS, CO, US) observed 2058 UTC 04 August 2015
Temperature: 28.3°C (83°F)
Dewpoint: 0.7°C (33°F) [RH = 17%]
Pressure (altimeter): 30.12 inches Hg (1020.1 mb[Sea-level pressure: 1010.8 mb]
Winds: from the NNW (340 degrees) at 7 MPH (6 knots; 3.1 m/s)
Visibility: 10 or more miles (16+ km)
Ceiling: at least 12,000 feet AGL
Clouds: few clouds at 12000 feet AGL
Weather: no significant weather observed at this time

METAR text: KAFF 041958Z 28010G18KT 10SM CLR 29/02 A3012 RMK AO2A SLP108 T02910020
Conditions at: KAFF (USAF ACADEMY/COS, CO, US) observed 1958 UTC 04 August 2015
Temperature: 29.1°C (84°F)
Dewpoint: 2.0°C (36°F) [RH = 18%]
Pressure (altimeter): 30.12 inches Hg (1020.1 mb[Sea-level pressure: 1010.8 mb]
Winds: from the W (280 degrees) at 12 MPH (10 knots; 5.2 m/sgusting to 21 MPH (18 knots; 9.4 m/s)
Visibility: 10 or more miles (16+ km)
Ceiling: at least 12,000 feet AGL
Clouds: sky clear below 12,000 feet AGL
Weather: no significant weather observed at this time

METAR text: KAFF 041858Z 03009KT 10SM CLR 28/04 A3013 RMK AO2A SLP111 T02780042
Conditions at: KAFF (USAF ACADEMY/COS, CO, US) observed 1858 UTC 04 August 2015
Temperature: 27.8°C (82°F)
Dewpoint: 4.2°C (40°F) [RH = 22%]
Pressure (altimeter): 30.13 inches Hg (1020.4 mb[Sea-level pressure: 1011.1 mb]
Winds: from the NNE (30 degrees) at 10 MPH (9 knots; 4.7 m/s)
Visibility: 10 or more miles (16+ km)
Ceiling: at least 12,000 feet AGL
Clouds: sky clear below 12,000 feet AGL
Weather: no significant weather observed at this time

METAR text: KAFF 041845Z 01011KT 330V050 10SM CLR 27/04 A3013 RMK AO2A WSHFT 43
Conditions at: KAFF (USAF ACADEMY/COS, CO, US) observed 1845 UTC 04 August 2015
Temperature: 27.0°C (81°F)
Dewpoint: 4.0°C (39°F) [RH = 23%]
Pressure (altimeter): 30.13 inches Hg (1020.4 mb)
Winds: from the N (10 degrees) at 13 MPH (11 knots; 5.7 m/s)
Visibility: 10 or more miles (16+ km)
Ceiling: at least 12,000 feet AGL
Clouds: sky clear below 12,000 feet AGL
Weather: no significant weather observed at this time

METAR text: KAFF 041801Z 30013G18KT 260V340 10SM CLR 27/03 A3014 RMK AO2A WSHFT 00
Conditions at: KAFF (USAF ACADEMY/COS, CO, US) observed 1801 UTC 04 August 2015
Temperature: 27.0°C (81°F)
Dewpoint: 3.0°C (37°F) [RH = 21%]
Pressure (altimeter): 30.14 inches Hg (1020.7 mb)
Winds: from the WNW (300 degrees) at 15 MPH (13 knots; 6.8 m/sgusting to 21 MPH (18 knots; 9.4 m/s)
Visibility: 10 or more miles (16+ km)
Ceiling: at least 12,000 feet AGL
Clouds: sky clear below 12,000 feet AGL
Weather: no significant weather observed at this time

METAR text: KAFF 041758Z VRB05KT 10SM CLR 27/03 A3015 RMK AO2A SLP118 T02720031 10273 20121 58006
Conditions at: KAFF (USAF ACADEMY/COS, CO, US) observed 1758 UTC 04 August 2015
Temperature: 27.2°C (81°F)
Dewpoint: 3.1°C (38°F) [RH = 21%]
Pressure (altimeter): 30.15 inches Hg (1021.1 mb[Sea-level pressure: 1011.8 mb]
Winds: variable direction winds at 6 MPH (5 knots; 2.6 m/s)
Visibility: 10 or more miles (16+ km)
Ceiling: at least 12,000 feet AGL
Clouds: sky clear below 12,000 feet AGL
Weather: no significant weather observed at this time

METAR text: KAFF 041745Z 32012G23KT 260V350 10SM CLR 27/04 A3015 RMK AO2A WSHFT 44 RAB32E44
Conditions at: KAFF (USAF ACADEMY/COS, CO, US) observed 1745 UTC 04 August 2015
Temperature: 27.0°C (81°F)
Dewpoint: 4.0°C (39°F) [RH = 23%]
Pressure (altimeter): 30.15 inches Hg (1021.1 mb)
Winds: from the NW (320 degrees) at 14 MPH (12 knots; 6.2 m/sgusting to 26 MPH (23 knots; 12.0 m/s)
Visibility: 10 or more miles (16+ km)
Ceiling: at least 12,000 feet AGL
Clouds: sky clear below 12,000 feet AGL
Weather: no significant weather observed at this time

METAR text: KAFF 041658Z 27006KT 10SM CLR 26/04 A3016 RMK AO2A SLP122 T02570037
Conditions at: KAFF (USAF ACADEMY/COS, CO, US) observed 1658 UTC 04 August 2015
Temperature: 25.7°C (78°F)
Dewpoint: 3.7°C (39°F) [RH = 24%]
Pressure (altimeter): 30.16 inches Hg (1021.4 mb[Sea-level pressure: 1012.2 mb]
Winds: from the W (270 degrees) at 7 MPH (6 knots; 3.1 m/s)
Visibility: 10 or more miles (16+ km)
Ceiling: at least 12,000 feet AGL
Clouds: sky clear below 12,000 feet AGL
Weather: no significant weather observed at this time

METAR text: KAFF 041558Z 32012G17KT 10SM CLR 24/04 A3017 RMK AO2A SLP125 T02440043
Conditions at: KAFF (USAF ACADEMY/COS, CO, US) observed 1558 UTC 04 August 2015
Temperature: 24.4°C (76°F)
Dewpoint: 4.3°C (40°F) [RH = 27%]
Pressure (altimeter): 30.17 inches Hg (1021.8 mb[Sea-level pressure: 1012.5 mb]
Winds: from the NW (320 degrees) at 14 MPH (12 knots; 6.2 m/sgusting to 20 MPH (17 knots; 8.8 m/s)
Visibility: 10 or more miles (16+ km)
Ceiling: at least 12,000 feet AGL
Clouds: sky clear below 12,000 feet AGL
Weather: no significant weather observed at this time

METAR text: KAFF 041458Z 28010G18KT 10SM FEW190 24/04 A3017 RMK AO2A SLP125 T02390041 53008
Conditions at: KAFF (USAF ACADEMY/COS, CO, US) observed 1458 UTC 04 August 2015
Temperature: 23.9°C (75°F)
Dewpoint: 4.1°C (39°F) [RH = 28%]
Pressure (altimeter): 30.17 inches Hg (1021.8 mb[Sea-level pressure: 1012.5 mb]
Winds: from the W (280 degrees) at 12 MPH (10 knots; 5.2 m/sgusting to 21 MPH (18 knots; 9.4 m/s)
Visibility: 10 or more miles (16+ km)
Ceiling: at least 12,000 feet AGL
Clouds: few clouds at 19000 feet AGL
Weather: no significant weather observed at this time

METAR text: KAFF 041358Z 05005KT 10SM FEW170 20/08 A3015 RMK AO2A SLP123 T01960081
Conditions at: KAFF (USAF ACADEMY/COS, CO, US) observed 1358 UTC 04 August 2015
Temperature: 19.6°C (67°F)
Dewpoint: 8.1°C (47°F) [RH = 47%]
Pressure (altimeter): 30.15 inches Hg (1021.1 mb[Sea-level pressure: 1012.3 mb]
Winds: from the NE (50 degrees) at 6 MPH (5 knots; 2.6 m/s)
Visibility: 10 or more miles (16+ km)
Ceiling: at least 12,000 feet AGL
Clouds: few clouds at 17000 feet AGL
Weather: no significant weather observed at this time

METAR text: KAFF 041258Z AUTO VRB06KT 10SM CLR 18/05 A3014 RMK AO2 SLP120 T01790050
Conditions at: KAFF (USAF ACADEMY/COS, CO, US) observed 1258 UTC 04 August 2015
Temperature: 17.9°C (64°F)
Dewpoint: 5.0°C (41°F) [RH = 43%]
Pressure (altimeter): 30.14 inches Hg (1020.7 mb[Sea-level pressure: 1012.0 mb]
Winds: variable direction winds at 7 MPH (6 knots; 3.1 m/s)
Visibility: 10 or more miles (16+ km)
Ceiling: at least 12,000 feet AGL
Clouds: sky clear below 12,000 feet AGL
Weather: automated observation with no human augmentation;
there may or may not be significant weather present at this time

METAR text: KAFF 041158Z AUTO VRB05KT 10SM CLR 13/09 A3014 RMK AO2 SLP130 70048 T01320088 10152 20095 57007
Conditions at: KAFF (USAF ACADEMY/COS, CO, US) observed 1158 UTC 04 August 2015
Temperature: 13.2°C (56°F)
Dewpoint: 8.8°C (48°F) [RH = 75%]
Pressure (altimeter): 30.14 inches Hg (1020.7 mb[Sea-level pressure: 1013.0 mb]
Winds: variable direction winds at 6 MPH (5 knots; 2.6 m/s)
Visibility: 10 or more miles (16+ km)
Ceiling: at least 12,000 feet AGL
Clouds: sky clear below 12,000 feet AGL
Weather: automated observation with no human augmentation;
there may or may not be significant weather present at this time

METAR text: KAFF 041058Z AUTO 27005G18KT 10SM CLR 10/09 A3014 RMK AO2 SLP130 T01020087
Conditions at: KAFF (USAF ACADEMY/COS, CO, US) observed 1058 UTC 04 August 2015
Temperature: 10.2°C (50°F)
Dewpoint: 8.7°C (48°F) [RH = 90%]
Pressure (altimeter): 30.14 inches Hg (1020.7 mb[Sea-level pressure: 1013.0 mb]
Winds: from the W (270 degrees) at 6 MPH (5 knots; 2.6 m/sgusting to 21 MPH (18 knots; 9.4 m/s)
Visibility: 10 or more miles (16+ km)
Ceiling: at least 12,000 feet AGL
Clouds: sky clear below 12,000 feet AGL
Weather: automated observation with no human augmentation;
there may or may not be significant weather present at this time

METAR text: KAFF 040958Z AUTO 01010KT 10SM CLR 10/10 A3015 RMK AO2 SLP134 T00970096
Conditions at: KAFF (USAF ACADEMY/COS, CO, US) observed 0958 UTC 04 August 2015
Temperature: 9.7°C (49°F)
Dewpoint: 9.6°C (49°F) [RH = 99%]
Pressure (altimeter): 30.15 inches Hg (1021.1 mb[Sea-level pressure: 1013.4 mb]
Winds: from the N (10 degrees) at 12 MPH (10 knots; 5.2 m/s)
Visibility: 10 or more miles (16+ km)
Ceiling: at least 12,000 feet AGL
Clouds: sky clear below 12,000 feet AGL
Weather: automated observation with no human augmentation;
there may or may not be significant weather present at this time

METAR text: KAFF 040858Z AUTO 36007KT 10SM CLR 11/10 A3016 RMK AO2 SLP148 T01050103 57006
Conditions at: KAFF (USAF ACADEMY/COS, CO, US) observed 0858 UTC 04 August 2015
Temperature: 10.5°C (51°F)
Dewpoint: 10.3°C (51°F) [RH = 99%]
Pressure (altimeter): 30.16 inches Hg (1021.4 mb[Sea-level pressure: 1014.8 mb]
Winds: from the N (360 degrees) at 8 MPH (7 knots; 3.6 m/s)
Visibility: 10 or more miles (16+ km)
Ceiling: at least 12,000 feet AGL
Clouds: sky clear below 12,000 feet AGL
Weather: automated observation with no human augmentation;
there may or may not be significant weather present at this time

METAR text: KAFF 040758Z AUTO 35008KT 10SM CLR 11/11 A3017 RMK AO2 SLP161 T01120110
Conditions at: KAFF (USAF ACADEMY/COS, CO, US) observed 0758 UTC 04 August 2015
Temperature: 11.2°C (52°F)
Dewpoint: 11.0°C (52°F) [RH = 99%]
Pressure (altimeter): 30.17 inches Hg (1021.8 mb[Sea-level pressure: 1016.1 mb]
Winds: from the N (350 degrees) at 9 MPH (8 knots; 4.2 m/s)
Visibility: 10 or more miles (16+ km)
Ceiling: at least 12,000 feet AGL
Clouds: sky clear below 12,000 feet AGL
Weather: automated observation with no human augmentation;
there may or may not be significant weather present at this time

METAR text: KAFF 040658Z AUTO 35006KT 10SM CLR 12/12 A3018 RMK AO2 SLP139 T01200118 402490120
Conditions at: KAFF (USAF ACADEMY/COS, CO, US) observed 0658 UTC 04 August 2015
Temperature: 12.0°C (54°F)
Dewpoint: 11.8°C (53°F) [RH = 99%]
Pressure (altimeter): 30.18 inches Hg (1022.1 mb[Sea-level pressure: 1013.9 mb]
Winds: from the N (350 degrees) at 7 MPH (6 knots; 3.1 m/s)
Visibility: 10 or more miles (16+ km)
Ceiling: at least 12,000 feet AGL
Clouds: sky clear below 12,000 feet AGL
Weather: automated observation with no human augmentation;
there may or may not be significant weather present at this time

METAR text: KAFF 040558Z AUTO 36007KT 10SM CLR 13/13 A3019 RMK AO2 SLP138 60016 T01290127 10209 20128 55006
Conditions at: KAFF (USAF ACADEMY/COS, CO, US) observed 0558 UTC 04 August 2015
Temperature: 12.9°C (55°F)
Dewpoint: 12.7°C (55°F) [RH = 99%]
Pressure (altimeter): 30.19 inches Hg (1022.4 mb[Sea-level pressure: 1013.8 mb]
Winds: from the N (360 degrees) at 8 MPH (7 knots; 3.6 m/s)
Visibility: 10 or more miles (16+ km)
Ceiling: at least 12,000 feet AGL
Clouds: sky clear below 12,000 feet AGL
Weather: automated observation with no human augmentation;
there may or may not be significant weather present at this time

METAR text: KAFF 040458Z AUTO 36004KT 10SM CLR 14/14 A3019 RMK AO2 SLP143 T01370136
Conditions at: KAFF (USAF ACADEMY/COS, CO, US) observed 0458 UTC 04 August 2015
Temperature: 13.7°C (57°F)
Dewpoint: 13.6°C (56°F) [RH = 99%]
Pressure (altimeter): 30.19 inches Hg (1022.4 mb[Sea-level pressure: 1014.3 mb]
Winds: from the N (360 degrees) at 5 MPH (4 knots; 2.1 m/s)
Visibility: 10 or more miles (16+ km)
Ceiling: at least 12,000 feet AGL
Clouds: sky clear below 12,000 feet AGL
Weather: automated observation with no human augmentation;
there may or may not be significant weather present at this time

METAR text: KAFF 040358Z AUTO 10004KT 10SM CLR 16/15 A3018 RMK AO2 LTG DSNT SE DZE00 SLP134 P0000 T01570150
Conditions at: KAFF (USAF ACADEMY/COS, CO, US) observed 0358 UTC 04 August 2015
Temperature: 15.7°C (60°F)
Dewpoint: 15.0°C (59°F) [RH = 96%]
Pressure (altimeter): 30.18 inches Hg (1022.1 mb[Sea-level pressure: 1013.4 mb]
Winds: from the E (100 degrees) at 5 MPH (4 knots; 2.1 m/s)
Visibility: 10 or more miles (16+ km)
Ceiling: at least 12,000 feet AGL
Clouds: sky clear below 12,000 feet AGL
Weather: automated observation with no human augmentation;
there may or may not be significant weather present at this time

METAR text: KAFF 040300Z AUTO VRB04KT 10SM SCT010 16/14 A3021 RMK AO2 LTG DSNT E DZE00
Conditions at: KAFF (USAF ACADEMY/COS, CO, US) observed 0300 UTC 04 August 2015
Temperature: 16.0°C (61°F)
Dewpoint: 14.0°C (57°F) [RH = 88%]
Pressure (altimeter): 30.21 inches Hg (1023.1 mb)
Winds: variable direction winds at 5 MPH (4 knots; 2.1 m/s)
Visibility: 10 or more miles (16+ km)
Ceiling: at least 12,000 feet AGL
Clouds: scattered clouds at 1000 feet AGL
Weather: automated observation with no human augmentation;
there may or may not be significant weather present at this time

METAR text: KAFF 040258Z AUTO 17005KT 10SM -DZ BKN010 15/13 A3021 RMK AO2 LTG DSNT E DZB12E15RAB15E57DZB57 TSB20E35 BKN V OVC SLP150 P0016 60016 T01540133 52010
Conditions at: KAFF (USAF ACADEMY/COS, CO, US) observed 0258 UTC 04 August 2015
Temperature: 15.4°C (60°F)
Dewpoint: 13.3°C (56°F) [RH = 87%]
Pressure (altimeter): 30.21 inches Hg (1023.1 mb[Sea-level pressure: 1015.0 mb]
Winds: from the S (170 degrees) at 6 MPH (5 knots; 2.6 m/s)
Visibility: 10 or more miles (16+ km)
Ceiling: 1000 feet AGL
Clouds: broken clouds at 1000 feet AGL
Weather: -DZ  (light drizzle)

METAR text: KAFF 040255Z AUTO 16005KT 10SM -RA BKN010 15/13 A3021 RMK AO2 LTG DSNT E DZB12E15RAB15 TSB20E35 BKN V OVC
Conditions at: KAFF (USAF ACADEMY/COS, CO, US) observed 0255 UTC 04 August 2015
Temperature: 15.0°C (59°F)
Dewpoint: 13.0°C (55°F) [RH = 88%]
Pressure (altimeter): 30.21 inches Hg (1023.1 mb)
Winds: from the SSE (160 degrees) at 6 MPH (5 knots; 2.6 m/s)
Visibility: 10 or more miles (16+ km)
Ceiling: 1000 feet AGL
Clouds: broken clouds at 1000 feet AGL
Weather: -RA  (light rain)

METAR text: KAFF 040250Z AUTO 20003KT 10SM -RA OVC009 15/13 A3021 RMK AO2 DZB12E15RAB15 TSB20E35 CIG 009V013
Conditions at: KAFF (USAF ACADEMY/COS, CO, US) observed 0250 UTC 04 August 2015
Temperature: 15.0°C (59°F)
Dewpoint: 13.0°C (55°F) [RH = 88%]
Pressure (altimeter): 30.21 inches Hg (1023.1 mb)
Winds: from the SSW (200 degrees) at 3 MPH (3 knots; 1.6 m/s)
Visibility: 10 or more miles (16+ km)
Ceiling: 900 feet AGL
Clouds: overcast cloud deck at 900 feet AGL
Weather: -RA  (light rain)

METAR text: KAFF 040245Z AUTO 23002KT 7SM -RA OVC010 16/13 A3020 RMK AO2 LTG DSNT SW DZB12E15RAB15 TSB20E35 CIG 010V016 PRESFR
Conditions at: KAFF (USAF ACADEMY/COS, CO, US) observed 0245 UTC 04 August 2015
Temperature: 16.0°C (61°F)
Dewpoint: 13.0°C (55°F) [RH = 82%]
Pressure (altimeter): 30.20 inches Hg (1022.8 mb)
Winds: from the SW (230 degrees) at 2 MPH (2 knots; 1.0 m/s)
Visibility: 7 miles (11 km)
Ceiling: 1000 feet AGL
Clouds: overcast cloud deck at 1000 feet AGL
Weather: -RA  (light rain)

METAR text: KAFF 040240Z AUTO 29003KT 4SM RA BR BKN013 OVC080 16/14 A3022 RMK AO2 LTG DSNT SW DZB12E15RAB15 TSB20E35 CIG 013V017
Conditions at: KAFF (USAF ACADEMY/COS, CO, US) observed 0240 UTC 04 August 2015
Temperature: 16.0°C (61°F)
Dewpoint: 14.0°C (57°F) [RH = 88%]
Pressure (altimeter): 30.22 inches Hg (1023.5 mb)
Winds: from the WNW (290 degrees) at 3 MPH (3 knots; 1.6 m/s)
Visibility: 4 miles (6 km)
Ceiling: 1300 feet AGL
Clouds: broken clouds at 1300 feet AGL
overcast cloud deck at 8000 feet AGL
Weather: RA BR  (rain, mist)

METAR text: KAFF 040235Z AUTO 32007KT 1 3/4SM RA BKN016 OVC080 17/14 A3022 RMK AO2 VIS 1 3/4V8 LTG DSNT N-NE AND SW DZB12E15RAB15 TSB20E35 CIG 013V080
Conditions at: KAFF (USAF ACADEMY/COS, CO, US) observed 0235 UTC 04 August 2015
Temperature: 17.0°C (63°F)
Dewpoint: 14.0°C (57°F) [RH = 82%]
Pressure (altimeter): 30.22 inches Hg (1023.5 mb)
Winds: from the NW (320 degrees) at 8 MPH (7 knots; 3.6 m/s)
Visibility: 1.75 miles (2.82 km)
Ceiling: 1600 feet AGL
Clouds: broken clouds at 1600 feet AGL
overcast cloud deck at 8000 feet AGL
Weather: RA  (rain)

METAR text: KAFF 040230Z AUTO 30007KT 2SM +TSRA BKN013 BKN080 17/14 A3023 RMK AO2 VIS 2V10 LTG DSNT N-NE AND SE AND SW DZB12E15RAB15 TSB20 CIG 013V080 BKN013 V SCT
Conditions at: KAFF (USAF ACADEMY/COS, CO, US) observed 0230 UTC 04 August 2015
Temperature: 17.0°C (63°F)
Dewpoint: 14.0°C (57°F) [RH = 82%]
Pressure (altimeter): 30.23 inches Hg (1023.8 mb)
Winds: from the WNW (300 degrees) at 8 MPH (7 knots; 3.6 m/s)
Visibility: 2.00 miles (3.22 km)
Ceiling: 1300 feet AGL
Clouds: broken clouds at 1300 feet AGL
broken clouds at 8000 feet AGL
Weather: +TSRA  (heavy rain associated with thunderstorm(s))

METAR text: KAFF 040220Z AUTO 28007KT 10SM -TSRA FEW010 BKN080 18/13 A3023 RMK AO2 LTG DSNT E-S AND W DZB12E15RAB15 TSB20
Conditions at: KAFF (USAF ACADEMY/COS, CO, US) observed 0220 UTC 04 August 2015
Temperature: 18.0°C (64°F)
Dewpoint: 13.0°C (55°F) [RH = 73%]
Pressure (altimeter): 30.23 inches Hg (1023.8 mb)
Winds: from the W (280 degrees) at 8 MPH (7 knots; 3.6 m/s)
Visibility: 10 or more miles (16+ km)
Ceiling: 8000 feet AGL
Clouds: few clouds at 1000 feet AGL
broken clouds at 8000 feet AGL
Weather: -TSRA  (light rain associated with thunderstorm(s))

METAR text: KAFF 040212Z AUTO 26005KT 10SM -DZ VCTS SCT085 18/13 A3022 RMK AO2 LTG DSNT W-N AND E-S DZB12 PRESRR
Conditions at: KAFF (USAF ACADEMY/COS, CO, US) observed 0212 UTC 04 August 2015
Temperature: 18.0°C (64°F)
Dewpoint: 13.0°C (55°F) [RH = 73%]
Pressure (altimeter): 30.22 inches Hg (1023.5 mb)
Winds: from the W (260 degrees) at 6 MPH (5 knots; 2.6 m/s)
Visibility: 10 or more miles (16+ km)
Ceiling: at least 12,000 feet AGL
Clouds: scattered clouds at 8500 feet AGL
Weather: -DZ VCTS  (light drizzle, thunderstorm in vicinity)

METAR text: KAFF 040158Z AUTO 21004KT 10SM VCTS CLR 18/13 A3019 RMK AO2 LTG DSNT N-NE AND S-SW SLP143 T01780126
Conditions at: KAFF (USAF ACADEMY/COS, CO, US) observed 0158 UTC 04 August 2015
Temperature: 17.8°C (64°F)
Dewpoint: 12.6°C (55°F) [RH = 72%]
Pressure (altimeter): 30.19 inches Hg (1022.4 mb[Sea-level pressure: 1014.3 mb]
Winds: from the SSW (210 degrees) at 5 MPH (4 knots; 2.1 m/s)
Visibility: 10 or more miles (16+ km)
Ceiling: at least 12,000 feet AGL
Clouds: sky clear below 12,000 feet AGL
Weather: VCTS  (thunderstorm in vicinity)

METAR text: KAFF 040058Z AUTO 11009KT 10SM CLR 20/12 A3018 RMK AO2 SLP139 T02040118
Conditions at: KAFF (USAF ACADEMY/COS, CO, US) observed 0058 UTC 04 August 2015
Temperature: 20.4°C (69°F)
Dewpoint: 11.8°C (53°F) [RH = 58%]
Pressure (altimeter): 30.18 inches Hg (1022.1 mb[Sea-level pressure: 1013.9 mb]
Winds: from the ESE (110 degrees) at 10 MPH (9 knots; 4.7 m/s)
Visibility: 10 or more miles (16+ km)
Ceiling: at least 12,000 feet AGL
Clouds: sky clear below 12,000 feet AGL
Weather: automated observation with no human augmentation;
there may or may not be significant weather present at this time

METAR text: KAFF 032358Z AUTO 12005KT 10SM CLR 20/11 A3017 RMK AO2 SLP136 60032 T02040109 10249 20147 57008
Conditions at: KAFF (USAF ACADEMY/COS, CO, US) observed 2358 UTC 03 August 2015
Temperature: 20.4°C (69°F)
Dewpoint: 10.9°C (52°F) [RH = 54%]
Pressure (altimeter): 30.17 inches Hg (1021.8 mb[Sea-level pressure: 1013.6 mb]
Winds: from the ESE (120 degrees) at 6 MPH (5 knots; 2.6 m/s)
Visibility: 10 or more miles (16+ km)
Ceiling: at least 12,000 feet AGL
Clouds: sky clear below 12,000 feet AGL
Weather: automated observation with no human augmentation;
there may or may not be significant weather present at this time

METAR text: KAFF 032258Z AUTO 22006KT 10SM VCTS FEW085 22/09 A3018 RMK AO2 LTG DSNT S-SW RAB07E37RAB39E51 SLP134 P0000 T02200094
Conditions at: KAFF (USAF ACADEMY/COS, CO, US) observed 2258 UTC 03 August 2015
Temperature: 22.0°C (72°F)
Dewpoint: 9.4°C (49°F) [RH = 45%]
Pressure (altimeter): 30.18 inches Hg (1022.1 mb[Sea-level pressure: 1013.4 mb]
Winds: from the SW (220 degrees) at 7 MPH (6 knots; 3.1 m/s)
Visibility: 10 or more miles (16+ km)
Ceiling: at least 12,000 feet AGL
Clouds: few clouds at 8500 feet AGL
Weather: VCTS  (thunderstorm in vicinity)

METAR text: KAFF 032251Z AUTO VRB04KT 10SM VCTS FEW085 22/09 A3017 RMK AO2 LTG DSNT NE AND S-SW RAB07E37RAB39E51
Conditions at: KAFF (USAF ACADEMY/COS, CO, US) observed 2251 UTC 03 August 2015
Temperature: 22.0°C (72°F)
Dewpoint: 9.0°C (48°F) [RH = 43%]
Pressure (altimeter): 30.17 inches Hg (1021.8 mb)
Winds: variable direction winds at 5 MPH (4 knots; 2.1 m/s)
Visibility: 10 or more miles (16+ km)
Ceiling: at least 12,000 feet AGL
Clouds: few clouds at 8500 feet AGL
Weather: VCTS  (thunderstorm in vicinity)

METAR text: KAFF 032239Z AUTO 15005KT 10SM -RA FEW090 22/09 A3017 RMK AO2 RAB07E37RAB39
Conditions at: KAFF (USAF ACADEMY/COS, CO, US) observed 2239 UTC 03 August 2015
Temperature: 22.0°C (72°F)
Dewpoint: 9.0°C (48°F) [RH = 43%]
Pressure (altimeter): 30.17 inches Hg (1021.8 mb)
Winds: from the SSE (150 degrees) at 6 MPH (5 knots; 2.6 m/s)
Visibility: 10 or more miles (16+ km)
Ceiling: at least 12,000 feet AGL
Clouds: few clouds at 9000 feet AGL
Weather: -RA  (light rain)

METAR text: KAFF 032225Z AUTO 12007KT 7SM CLR 23/09 A3017 RMK AO2 LTG DSNT SW RAB07
Conditions at: KAFF (USAF ACADEMY/COS, CO, US) observed 2225 UTC 03 August 2015
Temperature: 23.0°C (73°F)
Dewpoint: 9.0°C (48°F) [RH = 41%]
Pressure (altimeter): 30.17 inches Hg (1021.8 mb)
Winds: from the ESE (120 degrees) at 8 MPH (7 knots; 3.6 m/s)
Visibility: 7 miles (11 km)
Ceiling: at least 12,000 feet AGL
Clouds: sky clear below 12,000 feet AGL
Weather: automated observation with no human augmentation;
there may or may not be significant weather present at this time

METAR text: KAFF 032215Z AUTO VRB02KT 10SM -RA FEW130 23/08 A3017 RMK AO2 LTG DSNT SW RAB07
Conditions at: KAFF (USAF ACADEMY/COS, CO, US) observed 2215 UTC 03 August 2015
Temperature: 23.0°C (73°F)
Dewpoint: 8.0°C (46°F) [RH = 38%]
Pressure (altimeter): 30.17 inches Hg (1021.8 mb)
Winds: variable direction winds at 2 MPH (2 knots; 1.0 m/s)
Visibility: 10 or more miles (16+ km)
Ceiling: at least 12,000 feet AGL
Clouds: few clouds at 13000 feet AGL
Weather: -RA  (light rain)

METAR text: KAFF 032158Z AUTO 10008KT 10SM CLR 22/10 A3018 RMK AO2 SLP134 T02230101
Conditions at: KAFF (USAF ACADEMY/COS, CO, US) observed 2158 UTC 03 August 2015
Temperature: 22.3°C (72°F)
Dewpoint: 10.1°C (50°F) [RH = 46%]
Pressure (altimeter): 30.18 inches Hg (1022.1 mb[Sea-level pressure: 1013.4 mb]
Winds: from the E (100 degrees) at 9 MPH (8 knots; 4.2 m/s)
Visibility: 10 or more miles (16+ km)
Ceiling: at least 12,000 feet AGL
Clouds: sky clear below 12,000 feet AGL
Weather: automated observation with no human augmentation;
there may or may not be significant weather present at this time

METAR text: KAFF 032058Z AUTO 05008KT 10SM FEW110 SCT190 SCT210 19/13 A3020 RMK AO2 RAE08 TSE28 SLP146 P0000 60032 T01920130 53002
Conditions at: KAFF (USAF ACADEMY/COS, CO, US) observed 2058 UTC 03 August 2015
Temperature: 19.2°C (67°F)
Dewpoint: 13.0°C (55°F) [RH = 67%]
Pressure (altimeter): 30.20 inches Hg (1022.8 mb[Sea-level pressure: 1014.6 mb]
Winds: from the NE (50 degrees) at 9 MPH (8 knots; 4.2 m/s)
Visibility: 10 or more miles (16+ km)
Ceiling: at least 12,000 feet AGL
Clouds: few clouds at 11000 feet AGL
scattered clouds at 19000 feet AGL
scattered clouds at 21000 feet AGL
Weather: automated observation with no human augmentation;
there may or may not be significant weather present at this time

METAR text: KAFF 032028Z AUTO 01006KT 10SM VCTS FEW065 17/13 A3021 RMK AO2 LTG DSNT NE AND S RAE08 TSE28
Conditions at: KAFF (USAF ACADEMY/COS, CO, US) observed 2028 UTC 03 August 2015
Temperature: 17.0°C (63°F)
Dewpoint: 13.0°C (55°F) [RH = 77%]
Pressure (altimeter): 30.21 inches Hg (1023.1 mb)
Winds: from the N (10 degrees) at 7 MPH (6 knots; 3.1 m/s)
Visibility: 10 or more miles (16+ km)
Ceiling: at least 12,000 feet AGL
Clouds: few clouds at 6500 feet AGL
Weather: VCTS  (thunderstorm in vicinity)